sensor_id;sensor_type;location;lat;lon;timestamp;pressure;altitude;pressure_sealevel;temperature;humidity
52032;BME280;38044;45.148;39.604;2023-05-14T00:02:09;101435.78;;;11.39;77.18
52032;BME280;38044;45.148;39.604;2023-05-14T00:04:35;101508.06;;;11.81;76.66
52032;BME280;38044;45.148;39.604;2023-05-14T00:07:01;101525.31;;;11.85;76.81
52032;BME280;38044;45.148;39.604;2023-05-14T00:09:27;101447.88;;;11.46;76.16
52032;BME280;38044;45.148;39.604;2023-05-14T00:11:55;101452.69;;;11.49;76.44
52032;BME280;38044;45.148;39.604;2023-05-14T00:14:21;101463.44;;;11.60;76.36
52032;BME280;38044;45.148;39.604;2023-05-14T00:16:46;101503.22;;;11.83;75.93
52032;BME280;38044;45.148;39.604;2023-05-14T00:19:12;101522.56;;;11.95;75.84
52032;BME280;38044;45.148;39.604;2023-05-14T00:21:38;101508.88;;;11.87;76.15
52032;BME280;38044;45.148;39.604;2023-05-14T00:24:04;101426.41;;;11.26;76.63
52032;BME280;38044;45.148;39.604;2023-05-14T00:26:30;101426.47;;;11.11;77.87
52032;BME280;38044;45.148;39.604;2023-05-14T00:28:56;101530.16;;;11.78;78.15
52032;BME280;38044;45.148;39.604;2023-05-14T00:31:21;101537.69;;;11.81;78.37
52032;BME280;38044;45.148;39.604;2023-05-14T00:33:47;101535.53;;;11.83;79.12
52032;BME280;38044;45.148;39.604;2023-05-14T00:36:13;101531.25;;;11.72;79.43
52032;BME280;38044;45.148;39.604;2023-05-14T00:38:38;101445.78;;;11.23;79.63
52032;BME280;38044;45.148;39.604;2023-05-14T00:41:04;101431.81;;;11.16;79.24
52032;BME280;38044;45.148;39.604;2023-05-14T00:43:30;101547.94;;;11.89;79.67
52032;BME280;38044;45.148;39.604;2023-05-14T00:45:58;101462.97;;;11.42;79.05
52032;BME280;38044;45.148;39.604;2023-05-14T00:48:24;101535.56;;;11.88;79.33
52032;BME280;38044;45.148;39.604;2023-05-14T00:50:50;101522.91;;;11.73;78.83
52032;BME280;38044;45.148;39.604;2023-05-14T00:53:18;101459.75;;;11.30;79.23
52032;BME280;38044;45.148;39.604;2023-05-14T00:55:44;101544.19;;;11.75;79.12
52032;BME280;38044;45.148;39.604;2023-05-14T00:58:12;101546.63;;;11.71;79.38
52032;BME280;38044;45.148;39.604;2023-05-14T01:00:39;101550.69;;;11.64;79.64
52032;BME280;38044;45.148;39.604;2023-05-14T01:03:06;101527.53;;;11.53;79.09
52032;BME280;38044;45.148;39.604;2023-05-14T01:05:38;101545.53;;;11.67;79.83
52032;BME280;38044;45.148;39.604;2023-05-14T01:11:39;101522.16;;;11.58;79.34
52032;BME280;38044;45.148;39.604;2023-05-14T01:14:32;101537.19;;;11.69;79.66
52032;BME280;38044;45.148;39.604;2023-05-14T01:16:59;101533.47;;;11.60;79.83
52032;BME280;38044;45.148;39.604;2023-05-14T01:19:34;101546.94;;;11.60;80.00
52032;BME280;38044;45.148;39.604;2023-05-14T01:22:01;101531.31;;;11.57;79.03
52032;BME280;38044;45.148;39.604;2023-05-14T01:24:27;101457.66;;;11.12;78.52
52032;BME280;38044;45.148;39.604;2023-05-14T01:27:02;101541.22;;;11.71;78.23
52032;BME280;38044;45.148;39.604;2023-05-14T01:29:31;101540.66;;;11.85;77.01
52032;BME280;38044;45.148;39.604;2023-05-14T01:31:59;101464.63;;;11.23;76.96
52032;BME280;38044;45.148;39.604;2023-05-14T01:34:25;101541.19;;;11.87;76.34
52032;BME280;38044;45.148;39.604;2023-05-14T01:36:52;101531.22;;;11.87;75.56
52032;BME280;38044;45.148;39.604;2023-05-14T01:39:20;101537.16;;;11.89;75.25
52032;BME280;38044;45.148;39.604;2023-05-14T01:41:47;101542.00;;;11.87;75.04
52032;BME280;38044;45.148;39.604;2023-05-14T01:44:13;101543.91;;;11.87;75.02
52032;BME280;38044;45.148;39.604;2023-05-14T01:46:38;101543.63;;;11.83;74.87
52032;BME280;38044;45.148;39.604;2023-05-14T01:49:04;101543.91;;;11.82;74.70
52032;BME280;38044;45.148;39.604;2023-05-14T01:51:30;101540.38;;;11.81;75.17
52032;BME280;38044;45.148;39.604;2023-05-14T01:53:55;101539.88;;;11.79;75.04
52032;BME280;38044;45.148;39.604;2023-05-14T01:56:22;101539.31;;;11.77;75.37
52032;BME280;38044;45.148;39.604;2023-05-14T01:58:48;101549.06;;;11.63;76.48
52032;BME280;38044;45.148;39.604;2023-05-14T02:01:14;101526.22;;;11.45;76.89
52032;BME280;38044;45.148;39.604;2023-05-14T02:03:40;101542.66;;;11.48;77.20
52032;BME280;38044;45.148;39.604;2023-05-14T02:06:06;101541.03;;;11.47;77.40
52032;BME280;38044;45.148;39.604;2023-05-14T02:08:32;101558.25;;;11.52;77.29
52032;BME280;38044;45.148;39.604;2023-05-14T02:10:57;101552.31;;;11.55;77.07
52032;BME280;38044;45.148;39.604;2023-05-14T02:13:24;101560.94;;;11.52;77.67
52032;BME280;38044;45.148;39.604;2023-05-14T02:15:51;101553.41;;;11.48;77.80
52032;BME280;38044;45.148;39.604;2023-05-14T02:18:17;101540.50;;;11.40;77.76
52032;BME280;38044;45.148;39.604;2023-05-14T02:20:46;101562.28;;;11.54;77.88
52032;BME280;38044;45.148;39.604;2023-05-14T02:23:12;101558.00;;;11.43;77.82
52032;BME280;38044;45.148;39.604;2023-05-14T02:25:38;101507.97;;;11.16;77.83
52032;BME280;38044;45.148;39.604;2023-05-14T02:28:04;101566.88;;;11.48;78.17
52032;BME280;38044;45.148;39.604;2023-05-14T02:30:29;101560.66;;;11.53;77.87
52032;BME280;38044;45.148;39.604;2023-05-14T02:32:56;101554.50;;;11.37;78.67
52032;BME280;38044;45.148;39.604;2023-05-14T02:35:22;101491.03;;;11.05;78.37
52032;BME280;38044;45.148;39.604;2023-05-14T02:37:47;101513.63;;;11.25;78.01
52032;BME280;38044;45.148;39.604;2023-05-14T02:40:13;101555.25;;;11.58;78.11
52032;BME280;38044;45.148;39.604;2023-05-14T02:42:39;101502.56;;;11.26;77.63
52032;BME280;38044;45.148;39.604;2023-05-14T02:45:05;101558.25;;;11.57;77.25
52032;BME280;38044;45.148;39.604;2023-05-14T02:47:31;101509.84;;;11.26;77.38
52032;BME280;38044;45.148;39.604;2023-05-14T02:49:57;101578.13;;;11.71;77.30
52032;BME280;38044;45.148;39.604;2023-05-14T02:52:23;101492.09;;;11.20;77.18
52032;BME280;38044;45.148;39.604;2023-05-14T02:54:48;101493.44;;;11.27;76.64
52032;BME280;38044;45.148;39.604;2023-05-14T02:57:14;101568.97;;;11.72;76.71
52032;BME280;38044;45.148;39.604;2023-05-14T02:59:40;101573.81;;;11.85;76.40
52032;BME280;38044;45.148;39.604;2023-05-14T03:02:06;101577.03;;;11.82;76.31
52032;BME280;38044;45.148;39.604;2023-05-14T03:04:32;101584.03;;;11.88;76.42
52032;BME280;38044;45.148;39.604;2023-05-14T03:06:57;101557.88;;;11.84;78.46
52032;BME280;38044;45.148;39.604;2023-05-14T03:09:23;101573.53;;;11.92;76.52
52032;BME280;38044;45.148;39.604;2023-05-14T03:11:49;101541.78;;;11.73;77.50
52032;BME280;38044;45.148;39.604;2023-05-14T03:14:15;101569.47;;;11.89;76.28
52032;BME280;38044;45.148;39.604;2023-05-14T03:16:41;101561.38;;;11.84;76.33
52032;BME280;38044;45.148;39.604;2023-05-14T03:19:08;101536.16;;;11.65;76.29
52032;BME280;38044;45.148;39.604;2023-05-14T03:21:34;101579.16;;;11.95;76.31
52032;BME280;38044;45.148;39.604;2023-05-14T03:24:00;101504.41;;;11.52;76.96
52032;BME280;38044;45.148;39.604;2023-05-14T03:26:27;101598.47;;;12.18;76.13
52032;BME280;38044;45.148;39.604;2023-05-14T03:28:55;101587.69;;;12.18;75.83
52032;BME280;38044;45.148;39.604;2023-05-14T03:31:21;101590.94;;;12.20;75.31
52032;BME280;38044;45.148;39.604;2023-05-14T03:33:46;101589.31;;;12.19;76.06
52032;BME280;38044;45.148;39.604;2023-05-14T03:36:12;101617.78;;;12.40;76.06
52032;BME280;38044;45.148;39.604;2023-05-14T03:38:38;101584.97;;;12.23;75.61
52032;BME280;38044;45.148;39.604;2023-05-14T03:41:03;101615.75;;;12.72;75.45
52032;BME280;38044;45.148;39.604;2023-05-14T03:43:29;101613.78;;;12.82;74.71
52032;BME280;38044;45.148;39.604;2023-05-14T03:45:56;101619.66;;;12.90;74.41
52032;BME280;38044;45.148;39.604;2023-05-14T03:48:21;101619.88;;;12.98;73.69
52032;BME280;38044;45.148;39.604;2023-05-14T03:50:47;101628.47;;;13.05;73.39
52032;BME280;38044;45.148;39.604;2023-05-14T03:53:12;101631.94;;;13.11;72.89
52032;BME280;38044;45.148;39.604;2023-05-14T03:55:38;101632.44;;;13.13;72.88
52032;BME280;38044;45.148;39.604;2023-05-14T03:58:03;101623.25;;;13.19;72.47
52032;BME280;38044;45.148;39.604;2023-05-14T04:00:38;101620.47;;;13.24;72.46
52032;BME280;38044;45.148;39.604;2023-05-14T04:03:03;101631.28;;;13.29;72.27
52032;BME280;38044;45.148;39.604;2023-05-14T04:05:29;101615.25;;;13.04;72.33
52032;BME280;38044;45.148;39.604;2023-05-14T04:07:55;101541.72;;;12.44;74.10
52032;BME280;38044;45.148;39.604;2023-05-14T04:10:22;101631.94;;;13.11;73.23
52032;BME280;38044;45.148;39.604;2023-05-14T04:12:48;101634.28;;;13.23;72.82
52032;BME280;38044;45.148;39.604;2023-05-14T04:15:14;101634.19;;;13.33;73.18
52032;BME280;38044;45.148;39.604;2023-05-14T04:17:40;101648.34;;;13.54;73.16
52032;BME280;38044;45.148;39.604;2023-05-14T04:20:06;101632.78;;;13.41;72.31
52032;BME280;38044;45.148;39.604;2023-05-14T04:22:32;101632.66;;;13.56;71.35
52032;BME280;38044;45.148;39.604;2023-05-14T04:24:58;101533.03;;;12.91;71.72
52032;BME280;38044;45.148;39.604;2023-05-14T04:27:23;101640.84;;;13.99;71.08
52032;BME280;38044;45.148;39.604;2023-05-14T04:29:49;101635.22;;;13.71;71.22
52032;BME280;38044;45.148;39.604;2023-05-14T04:32:15;101646.38;;;13.89;70.94
52032;BME280;38044;45.148;39.604;2023-05-14T04:34:42;101646.84;;;13.96;71.36
52032;BME280;38044;45.148;39.604;2023-05-14T04:37:08;101542.53;;;13.47;71.06
52032;BME280;38044;45.148;39.604;2023-05-14T04:39:34;101651.44;;;13.95;70.87
52032;BME280;38044;45.148;39.604;2023-05-14T04:42:00;101624.94;;;13.97;71.94
52032;BME280;38044;45.148;39.604;2023-05-14T04:44:26;101651.91;;;14.27;71.30
52032;BME280;38044;45.148;39.604;2023-05-14T04:46:51;101581.38;;;13.99;70.29
52032;BME280;38044;45.148;39.604;2023-05-14T04:49:17;101578.78;;;14.13;68.88
52032;BME280;38044;45.148;39.604;2023-05-14T04:51:43;101594.34;;;14.45;69.56
52032;BME280;38044;45.148;39.604;2023-05-14T04:54:09;101651.16;;;14.88;68.52
52032;BME280;38044;45.148;39.604;2023-05-14T04:56:34;101612.94;;;14.71;67.79
52032;BME280;38044;45.148;39.604;2023-05-14T04:59:00;101647.13;;;14.85;67.67
52032;BME280;38044;45.148;39.604;2023-05-14T05:01:26;101580.31;;;14.43;67.27
52032;BME280;38044;45.148;39.604;2023-05-14T05:03:52;101609.22;;;14.67;68.25
52032;BME280;38044;45.148;39.604;2023-05-14T05:06:18;101651.81;;;15.31;67.36
52032;BME280;38044;45.148;39.604;2023-05-14T05:08:43;101654.78;;;15.49;66.98
52032;BME280;38044;45.148;39.604;2023-05-14T05:11:09;101663.44;;;15.65;66.66
52032;BME280;38044;45.148;39.604;2023-05-14T05:13:34;101662.41;;;15.80;66.57
52032;BME280;38044;45.148;39.604;2023-05-14T05:16:00;101664.03;;;15.94;65.59
52032;BME280;38044;45.148;39.604;2023-05-14T05:18:25;101669.38;;;15.99;65.44
52032;BME280;38044;45.148;39.604;2023-05-14T05:20:51;101669.38;;;15.99;65.30
52032;BME280;38044;45.148;39.604;2023-05-14T05:23:17;101669.25;;;16.05;65.32
52032;BME280;38044;45.148;39.604;2023-05-14T05:25:42;101668.63;;;15.80;65.75
52032;BME280;38044;45.148;39.604;2023-05-14T05:28:08;101673.97;;;16.27;65.13
52032;BME280;38044;45.148;39.604;2023-05-14T05:30:33;101675.97;;;16.35;64.93
52032;BME280;38044;45.148;39.604;2023-05-14T05:32:59;101661.53;;;16.12;64.63
52032;BME280;38044;45.148;39.604;2023-05-14T05:35:25;101680.34;;;16.72;64.15
52032;BME280;38044;45.148;39.604;2023-05-14T05:37:50;101677.72;;;16.95;63.60
52032;BME280;38044;45.148;39.604;2023-05-14T05:40:16;101681.25;;;17.18;62.65
52032;BME280;38044;45.148;39.604;2023-05-14T05:42:41;101686.19;;;17.61;62.57
52032;BME280;38044;45.148;39.604;2023-05-14T05:45:08;101665.72;;;17.63;60.71
52032;BME280;38044;45.148;39.604;2023-05-14T05:47:34;101678.47;;;17.85;60.07
52032;BME280;38044;45.148;39.604;2023-05-14T05:49:59;101672.66;;;18.00;59.09
52032;BME280;38044;45.148;39.604;2023-05-14T05:52:25;101604.94;;;17.99;58.85
52032;BME280;38044;45.148;39.604;2023-05-14T05:54:51;101668.34;;;19.35;59.24
52032;BME280;38044;45.148;39.604;2023-05-14T05:57:17;101652.19;;;19.12;55.84
52032;BME280;38044;45.148;39.604;2023-05-14T05:59:42;101664.06;;;19.90;55.17
52032;BME280;38044;45.148;39.604;2023-05-14T06:02:08;101672.31;;;20.11;56.10
52032;BME280;38044;45.148;39.604;2023-05-14T06:04:33;101674.09;;;20.36;57.30
52032;BME280;38044;45.148;39.604;2023-05-14T06:06:59;101678.81;;;20.57;55.36
52032;BME280;38044;45.148;39.604;2023-05-14T06:09:24;101667.25;;;20.81;54.18
52032;BME280;38044;45.148;39.604;2023-05-14T06:11:50;101671.97;;;20.92;51.79
52032;BME280;38044;45.148;39.604;2023-05-14T06:14:16;101675.31;;;20.47;52.10
52032;BME280;38044;45.148;39.604;2023-05-14T06:16:42;101655.06;;;19.89;52.57
52032;BME280;38044;45.148;39.604;2023-05-14T06:19:07;101650.34;;;19.69;53.71
52032;BME280;38044;45.148;39.604;2023-05-14T06:21:34;101576.94;;;19.38;52.39
52032;BME280;38044;45.148;39.604;2023-05-14T06:24:00;101645.97;;;20.15;52.19
52032;BME280;38044;45.148;39.604;2023-05-14T06:26:26;101665.44;;;20.34;50.67
52032;BME280;38044;45.148;39.604;2023-05-14T06:28:51;101672.50;;;21.07;51.03
52032;BME280;38044;45.148;39.604;2023-05-14T06:31:17;101647.44;;;20.63;50.46
52032;BME280;38044;45.148;39.604;2023-05-14T06:33:43;101668.25;;;20.46;51.44
52032;BME280;38044;45.148;39.604;2023-05-14T06:36:09;101672.81;;;21.26;51.14
52032;BME280;38044;45.148;39.604;2023-05-14T06:38:34;101670.38;;;21.46;49.01
52032;BME280;38044;45.148;39.604;2023-05-14T06:41:00;101638.31;;;21.01;49.53
52032;BME280;38044;45.148;39.604;2023-05-14T06:43:26;101591.56;;;20.93;47.51
52032;BME280;38044;45.148;39.604;2023-05-14T06:45:53;101650.03;;;21.34;46.11
52032;BME280;38044;45.148;39.604;2023-05-14T06:48:18;101671.84;;;22.13;47.33
52032;BME280;38044;45.148;39.604;2023-05-14T06:50:45;101649.34;;;21.83;45.50
52032;BME280;38044;45.148;39.604;2023-05-14T06:53:11;101588.34;;;21.70;44.38
52032;BME280;38044;45.148;39.604;2023-05-14T06:55:37;101598.34;;;22.03;44.29
52032;BME280;38044;45.148;39.604;2023-05-14T06:58:05;101664.56;;;22.82;44.94
52032;BME280;38044;45.148;39.604;2023-05-14T07:00:31;101659.91;;;23.11;43.07
52032;BME280;38044;45.148;39.604;2023-05-14T07:02:57;101672.03;;;24.17;43.43
52032;BME280;38044;45.148;39.604;2023-05-14T07:05:23;101665.28;;;24.31;42.47
52032;BME280;38044;45.148;39.604;2023-05-14T07:07:48;101666.34;;;24.42;41.94
52032;BME280;38044;45.148;39.604;2023-05-14T07:10:14;101665.59;;;24.80;43.89
52032;BME280;38044;45.148;39.604;2023-05-14T07:12:40;101642.91;;;24.13;40.85
52032;BME280;38044;45.148;39.604;2023-05-14T07:15:05;101667.03;;;24.74;41.30
52032;BME280;38044;45.148;39.604;2023-05-14T07:17:31;101659.31;;;24.99;41.78
52032;BME280;38044;45.148;39.604;2023-05-14T07:19:57;101660.22;;;25.26;41.10
52032;BME280;38044;45.148;39.604;2023-05-14T07:22:22;101660.94;;;25.43;42.36
52032;BME280;38044;45.148;39.604;2023-05-14T07:24:48;101653.47;;;24.81;39.91
52032;BME280;38044;45.148;39.604;2023-05-14T07:27:14;101649.59;;;24.66;40.87
52032;BME280;38044;45.148;39.604;2023-05-14T07:29:41;101656.06;;;25.78;39.12
52032;BME280;38044;45.148;39.604;2023-05-14T07:32:07;101641.56;;;24.97;39.57
52032;BME280;38044;45.148;39.604;2023-05-14T07:34:33;101577.34;;;24.66;39.96
52032;BME280;38044;45.148;39.604;2023-05-14T07:37:00;101632.75;;;24.87;39.71
52032;BME280;38044;45.148;39.604;2023-05-14T07:39:26;101560.44;;;24.64;39.23
52032;BME280;38044;45.148;39.604;2023-05-14T07:41:51;101655.59;;;25.30;40.09
52032;BME280;38044;45.148;39.604;2023-05-14T07:44:19;101632.66;;;24.84;40.18
52032;BME280;38044;45.148;39.604;2023-05-14T07:46:45;101658.38;;;25.76;39.72
52032;BME280;38044;45.148;39.604;2023-05-14T07:49:11;101658.38;;;25.76;38.04
52032;BME280;38044;45.148;39.604;2023-05-14T07:51:36;101661.69;;;25.86;38.93
52032;BME280;38044;45.148;39.604;2023-05-14T07:54:02;101663.19;;;26.06;39.33
52032;BME280;38044;45.148;39.604;2023-05-14T07:56:28;101660.81;;;25.81;39.16
52032;BME280;38044;45.148;39.604;2023-05-14T07:58:53;101657.69;;;25.60;39.95
52032;BME280;38044;45.148;39.604;2023-05-14T08:01:19;101660.50;;;25.40;39.17
52032;BME280;38044;45.148;39.604;2023-05-14T08:03:44;101654.56;;;25.15;40.17
52032;BME280;38044;45.148;39.604;2023-05-14T08:06:10;101637.09;;;24.69;39.73
52032;BME280;38044;45.148;39.604;2023-05-14T08:08:36;101662.13;;;25.03;39.75
52032;BME280;38044;45.148;39.604;2023-05-14T08:11:02;101577.31;;;24.27;40.60
52032;BME280;38044;45.148;39.604;2023-05-14T08:13:28;101577.09;;;24.55;40.36
52032;BME280;38044;45.148;39.604;2023-05-14T08:15:54;101650.28;;;24.99;39.29
52032;BME280;38044;45.148;39.604;2023-05-14T08:18:20;101574.28;;;24.90;40.39
52032;BME280;38044;45.148;39.604;2023-05-14T08:20:46;101626.13;;;25.77;38.86
52032;BME280;38044;45.148;39.604;2023-05-14T08:23:12;101595.56;;;25.59;38.48
52032;BME280;38044;45.148;39.604;2023-05-14T08:25:38;101654.66;;;26.15;39.87
52032;BME280;38044;45.148;39.604;2023-05-14T08:28:04;101650.84;;;25.73;40.57
52032;BME280;38044;45.148;39.604;2023-05-14T08:30:29;101569.81;;;24.43;39.96
52032;BME280;38044;45.148;39.604;2023-05-14T08:32:56;101583.53;;;24.24;40.22
52032;BME280;38044;45.148;39.604;2023-05-14T08:35:22;101594.47;;;24.59;40.71
52032;BME280;38044;45.148;39.604;2023-05-14T08:37:48;101620.28;;;24.55;39.96
52032;BME280;38044;45.148;39.604;2023-05-14T08:40:14;101621.47;;;24.54;39.53
52032;BME280;38044;45.148;39.604;2023-05-14T08:42:40;101641.34;;;24.86;39.40
52032;BME280;38044;45.148;39.604;2023-05-14T08:45:12;101634.56;;;24.25;38.92
52032;BME280;38044;45.148;39.604;2023-05-14T08:47:42;101634.47;;;24.21;38.88
52032;BME280;38044;45.148;39.604;2023-05-14T08:50:09;101547.91;;;23.60;40.31
52032;BME280;38044;45.148;39.604;2023-05-14T08:52:36;101611.50;;;23.78;40.47
52032;BME280;38044;45.148;39.604;2023-05-14T08:55:04;101627.34;;;23.85;40.51
52032;BME280;38044;45.148;39.604;2023-05-14T08:57:34;101614.38;;;24.72;39.74
52032;BME280;38044;45.148;39.604;2023-05-14T09:00:00;101625.69;;;25.52;38.48
52032;BME280;38044;45.148;39.604;2023-05-14T09:02:29;101611.19;;;25.55;38.83
52032;BME280;38044;45.148;39.604;2023-05-14T09:04:58;101619.69;;;25.69;37.83
52032;BME280;38044;45.148;39.604;2023-05-14T09:07:24;101617.75;;;25.93;38.03
52032;BME280;38044;45.148;39.604;2023-05-14T09:09:50;101611.75;;;26.44;36.95
52032;BME280;38044;45.148;39.604;2023-05-14T09:12:15;101609.72;;;26.67;36.52
52032;BME280;38044;45.148;39.604;2023-05-14T09:14:42;101580.38;;;26.52;36.84
52032;BME280;38044;45.148;39.604;2023-05-14T09:17:08;101563.16;;;26.59;36.67
52032;BME280;38044;45.148;39.604;2023-05-14T09:19:39;101598.34;;;27.10;35.52
52032;BME280;38044;45.148;39.604;2023-05-14T09:22:11;101584.47;;;26.99;36.71
52032;BME280;38044;45.148;39.604;2023-05-14T09:24:37;101592.41;;;27.04;36.33
52032;BME280;38044;45.148;39.604;2023-05-14T09:27:03;101589.31;;;28.05;36.52
52032;BME280;38044;45.148;39.604;2023-05-14T09:29:29;101591.34;;;28.19;35.32
52032;BME280;38044;45.148;39.604;2023-05-14T09:31:56;101583.44;;;28.18;34.98
52032;BME280;38044;45.148;39.604;2023-05-14T09:34:23;101563.72;;;27.60;32.93
52032;BME280;38044;45.148;39.604;2023-05-14T09:37:03;101560.19;;;27.15;33.87
52032;BME280;38044;45.148;39.604;2023-05-14T09:39:30;101580.81;;;26.91;33.30
52032;BME280;38044;45.148;39.604;2023-05-14T09:41:57;101551.31;;;26.58;32.96
52032;BME280;38044;45.148;39.604;2023-05-14T09:44:22;101574.22;;;27.40;33.47
52032;BME280;38044;45.148;39.604;2023-05-14T09:46:49;101572.69;;;27.47;32.76
52032;BME280;38044;45.148;39.604;2023-05-14T09:49:15;101579.34;;;26.34;35.12
52032;BME280;38044;45.148;39.604;2023-05-14T09:51:41;101563.34;;;25.63;35.17
52032;BME280;38044;45.148;39.604;2023-05-14T09:54:07;101573.78;;;25.27;36.22
52032;BME280;38044;45.148;39.604;2023-05-14T09:56:34;101565.44;;;25.47;38.08
52032;BME280;38044;45.148;39.604;2023-05-14T09:58:59;101569.81;;;26.27;36.20
52032;BME280;38044;45.148;39.604;2023-05-14T10:01:27;101548.03;;;25.89;37.22
52032;BME280;38044;45.148;39.604;2023-05-14T10:03:53;101558.97;;;26.42;36.05
52032;BME280;38044;45.148;39.604;2023-05-14T10:06:22;101503.84;;;25.28;37.34
52032;BME280;38044;45.148;39.604;2023-05-14T10:08:53;101562.69;;;25.47;38.27
52032;BME280;38044;45.148;39.604;2023-05-14T10:11:24;101546.25;;;25.04;38.22
52032;BME280;38044;45.148;39.604;2023-05-14T10:18:51;101558.63;;;24.94;37.78
52032;BME280;38044;45.148;39.604;2023-05-14T10:21:21;101548.53;;;24.79;39.46
52032;BME280;38044;45.148;39.604;2023-05-14T10:23:49;101533.34;;;24.66;39.03
52032;BME280;38044;45.148;39.604;2023-05-14T10:26:15;101476.66;;;24.58;38.00
52032;BME280;38044;45.148;39.604;2023-05-14T10:28:41;101557.28;;;24.85;37.98
52032;BME280;38044;45.148;39.604;2023-05-14T10:31:08;101531.06;;;24.48;37.03
52032;BME280;38044;45.148;39.604;2023-05-14T10:33:48;101562.25;;;24.99;37.38
52032;BME280;38044;45.148;39.604;2023-05-14T10:36:16;101560.00;;;24.62;37.85
52032;BME280;38044;45.148;39.604;2023-05-14T10:38:43;101560.34;;;24.60;38.14
52032;BME280;38044;45.148;39.604;2023-05-14T10:41:15;101472.03;;;24.23;38.16
52032;BME280;38044;45.148;39.604;2023-05-14T10:43:46;101526.69;;;24.28;38.00
52032;BME280;38044;45.148;39.604;2023-05-14T10:46:13;101552.69;;;24.50;38.20
52032;BME280;38044;45.148;39.604;2023-05-14T10:48:43;101469.28;;;24.03;39.62
52032;BME280;38044;45.148;39.604;2023-05-14T10:51:09;101554.84;;;25.03;38.17
52032;BME280;38044;45.148;39.604;2023-05-14T10:56:08;101513.09;;;24.55;39.67
52032;BME280;38044;45.148;39.604;2023-05-14T10:58:38;101546.22;;;24.42;40.09
52032;BME280;38044;45.148;39.604;2023-05-14T11:01:08;101543.34;;;24.55;40.01
52032;BME280;38044;45.148;39.604;2023-05-14T11:03:44;101539.56;;;24.63;39.71
52032;BME280;38044;45.148;39.604;2023-05-14T11:06:12;101508.03;;;24.37;40.60
52032;BME280;38044;45.148;39.604;2023-05-14T11:08:38;101548.31;;;24.68;40.57
52032;BME280;38044;45.148;39.604;2023-05-14T11:11:05;101550.22;;;24.64;40.63
52032;BME280;38044;45.148;39.604;2023-05-14T11:13:31;101531.84;;;24.68;41.06
52032;BME280;38044;45.148;39.604;2023-05-14T11:15:59;101547.34;;;25.46;40.62
52032;BME280;38044;45.148;39.604;2023-05-14T11:18:29;101550.81;;;25.16;40.34
52032;BME280;38044;45.148;39.604;2023-05-14T11:20:59;101547.69;;;25.67;40.00
52032;BME280;38044;45.148;39.604;2023-05-14T11:23:26;101547.47;;;25.07;40.95
52032;BME280;38044;45.148;39.604;2023-05-14T11:25:53;101538.66;;;24.98;39.42
52032;BME280;38044;45.148;39.604;2023-05-14T11:28:23;101485.16;;;24.72;40.49
52032;BME280;38044;45.148;39.604;2023-05-14T11:30:49;101547.78;;;25.74;39.64
52032;BME280;38044;45.148;39.604;2023-05-14T11:33:16;101549.63;;;25.17;39.87
52032;BME280;38044;45.148;39.604;2023-05-14T11:35:42;101473.28;;;24.45;40.16
52032;BME280;38044;45.148;39.604;2023-05-14T11:38:19;101541.09;;;25.03;39.40
52032;BME280;38044;45.148;39.604;2023-05-14T11:40:54;101544.03;;;24.90;40.72
52032;BME280;38044;45.148;39.604;2023-05-14T11:43:21;101523.53;;;24.45;39.58
52032;BME280;38044;45.148;39.604;2023-05-14T11:45:50;101522.81;;;24.48;40.63
52032;BME280;38044;45.148;39.604;2023-05-14T11:48:17;101508.81;;;24.38;40.31
52032;BME280;38044;45.148;39.604;2023-05-14T11:50:51;101533.06;;;24.52;40.40
52032;BME280;38044;45.148;39.604;2023-05-14T11:53:35;101511.31;;;24.43;40.30
52032;BME280;38044;45.148;39.604;2023-05-14T11:56:01;101501.56;;;23.91;40.44
52032;BME280;38044;45.148;39.604;2023-05-14T11:58:31;101505.59;;;24.13;42.46
52032;BME280;38044;45.148;39.604;2023-05-14T12:00:58;101497.63;;;24.08;41.45
52032;BME280;38044;45.148;39.604;2023-05-14T12:03:24;101415.72;;;23.74;40.18
52032;BME280;38044;45.148;39.604;2023-05-14T12:05:58;101500.31;;;24.43;41.24
52032;BME280;38044;45.148;39.604;2023-05-14T12:08:31;101513.31;;;24.65;41.72
52032;BME280;38044;45.148;39.604;2023-05-14T12:10:57;101513.63;;;25.26;39.93
52032;BME280;38044;45.148;39.604;2023-05-14T12:13:27;101521.31;;;24.93;40.53
52032;BME280;38044;45.148;39.604;2023-05-14T12:15:58;101436.88;;;24.32;40.73
52032;BME280;38044;45.148;39.604;2023-05-14T12:18:26;101492.91;;;24.89;41.93
52032;BME280;38044;45.148;39.604;2023-05-14T12:20:53;101513.78;;;25.13;41.50
52032;BME280;38044;45.148;39.604;2023-05-14T12:23:25;101512.06;;;25.51;38.94
52032;BME280;38044;45.148;39.604;2023-05-14T12:25:51;101500.47;;;24.92;39.75
52032;BME280;38044;45.148;39.604;2023-05-14T12:28:18;101519.47;;;24.78;39.47
52032;BME280;38044;45.148;39.604;2023-05-14T12:30:46;101486.63;;;24.66;39.61
52032;BME280;38044;45.148;39.604;2023-05-14T12:33:12;101493.47;;;24.53;40.24
52032;BME280;38044;45.148;39.604;2023-05-14T12:35:42;101411.75;;;23.91;39.80
52032;BME280;38044;45.148;39.604;2023-05-14T12:38:08;101502.00;;;24.47;41.29
52032;BME280;38044;45.148;39.604;2023-05-14T12:40:34;101426.38;;;23.95;40.81
52032;BME280;38044;45.148;39.604;2023-05-14T12:42:59;101411.91;;;23.79;41.02
52032;BME280;38044;45.148;39.604;2023-05-14T12:45:25;101515.13;;;24.58;39.41
52032;BME280;38044;45.148;39.604;2023-05-14T12:47:51;101505.25;;;23.79;39.87
52032;BME280;38044;45.148;39.604;2023-05-14T12:50:17;101420.25;;;22.84;40.99